Time;durP1;ratioP1;P1;durP2;ratioP2;P2;SDS_P1;SDS_P2;PMS_P1;PMS_P2;Temp;Humidity;BMP_temperature;BMP_pressure;BME280_temperature;BME280_humidity;BME280_pressure;Samples;Min_cycle;Max_cycle;Signal;HPM_P1;HPM_P2
2021/04/03 00:00:01;;;;;;;;;;;;;;;4.78;100.00;100690.41;5079335;28;20332;-85
2021/04/03 00:02:31;;;;;;;;;;;;;;;4.91;100.00;100700.31;5097558;27;20056;-86
2021/04/03 00:04:57;;;;;;;;;;;;;;;4.96;100.00;100695.38;5099591;27;19931;-85
2021/04/03 00:07:24;;;;;;;;;;;;;;;4.97;100.00;100694.22;5082665;28;20028;-85
2021/04/03 00:09:51;;;;;;;;;;;;;;;4.83;100.00;100690.97;5084344;28;20458;-85
2021/04/03 00:12:17;;;;;;;;;;;;;;;4.74;100.00;100690.28;5104728;28;20389;-86
2021/04/03 00:14:46;;;;;;;;;;;;;;;4.81;100.00;100686.94;5099463;27;19930;-85
2021/04/03 00:17:12;;;;;;;;;;;;;;;4.79;100.00;100687.28;5134892;27;19930;-86
2021/04/03 00:19:39;;;;;;;;;;;;;;;4.77;100.00;100686.81;5079892;28;19924;-86
2021/04/03 00:22:06;;;;;;;;;;;;;;;4.85;100.00;100698.94;5126184;28;20028;-85
2021/04/03 00:24:33;;;;;;;;;;;;;;;4.89;100.00;100691.56;5096279;28;19923;-85
2021/04/03 00:27:01;;;;;;;;;;;;;;;4.67;100.00;100698.38;5109874;28;20393;-85
2021/04/03 00:29:27;;;;;;;;;;;;;;;4.64;100.00;100689.94;5115817;28;20421;-85
2021/04/03 00:31:54;;;;;;;;;;;;;;;4.61;100.00;100696.16;5120774;27;19958;-85
2021/04/03 00:34:21;;;;;;;;;;;;;;;4.70;100.00;100689.38;5083000;28;20400;-85
2021/04/03 00:36:47;;;;;;;;;;;;;;;4.67;100.00;100687.28;5101144;28;20386;-86
2021/04/03 00:39:14;;;;;;;;;;;;;;;4.52;100.00;100687.97;5046021;28;19924;-86
2021/04/03 00:41:41;;;;;;;;;;;;;;;4.56;100.00;100701.94;5093269;27;19923;-86
2021/04/03 00:44:07;;;;;;;;;;;;;;;4.55;100.00;100694.78;5100030;28;20318;-85
2021/04/03 00:46:36;;;;;;;;;;;;;;;4.48;100.00;100692.59;5113803;27;20018;-86
2021/04/03 00:49:04;;;;;;;;;;;;;;;4.53;100.00;100689.56;5083107;28;19955;-86
2021/04/03 00:51:31;;;;;;;;;;;;;;;4.47;100.00;100679.09;5120214;27;19945;-86
2021/04/03 00:53:59;;;;;;;;;;;;;;;4.49;100.00;100674.81;5085968;28;19952;-86
2021/04/03 00:56:26;;;;;;;;;;;;;;;4.46;100.00;100667.22;5068030;28;19932;-86
2021/04/03 00:58:54;;;;;;;;;;;;;;;4.44;100.00;100677.03;5082760;28;19924;-86
2021/04/03 01:01:22;;;;;;;;;;;;;;;4.46;100.00;100669.16;5106596;28;20393;-86
2021/04/03 01:03:51;;;;;;;;;;;;;;;4.43;100.00;100667.91;5113852;27;20053;-85
2021/04/03 01:06:19;;;;;;;;;;;;;;;4.39;100.00;100655.88;5099495;28;19934;-85
2021/04/03 01:08:46;;;;;;;;;;;;;;;4.39;100.00;100655.88;5098534;27;20066;-85
2021/04/03 01:11:12;;;;;;;;;;;;;;;4.41;100.00;100650.81;5069244;27;19930;-85
2021/04/03 01:13:53;;;;;;;;;;;;;;;4.38;100.00;100637.66;5082444;28;20293;-86
2021/04/03 01:16:33;;;;;;;;;;;;;;;4.29;100.00;100653.56;5132042;27;19961;-86
2021/04/03 01:19:19;;;;;;;;;;;;;;;4.33;100.00;100637.88;5080067;28;20014;-86
2021/04/03 01:22:00;;;;;;;;;;;;;;;4.27;100.00;100650.31;5072043;28;19924;-85
2021/04/03 01:24:40;;;;;;;;;;;;;;;4.33;100.00;100632.34;5110502;27;19924;-86
2021/04/03 01:27:14;;;;;;;;;;;;;;;4.25;100.00;100644.34;5099469;28;19924;-86
2021/04/03 01:30:03;;;;;;;;;;;;;;;4.25;100.00;100655.41;5108582;27;19971;-86
2021/04/03 01:32:40;;;;;;;;;;;;;;;4.24;100.00;100647.47;5110574;27;19930;-86
2021/04/03 01:35:08;;;;;;;;;;;;;;;4.29;100.00;100645.28;5090722;28;19923;-85
2021/04/03 01:37:41;;;;;;;;;;;;;;;4.28;100.00;100642.84;5099184;27;19924;-85
2021/04/03 01:40:14;;;;;;;;;;;;;;;4.29;100.00;100639.72;5081759;28;19923;-85
2021/04/03 01:42:43;;;;;;;;;;;;;;;4.38;100.00;100639.63;5097605;27;20014;-85
2021/04/03 01:45:10;;;;;;;;;;;;;;;4.26;100.00;100637.66;5096444;28;20006;-86
2021/04/03 01:47:39;;;;;;;;;;;;;;;4.23;100.00;100635.56;5098522;28;20015;-86
2021/04/03 01:50:06;;;;;;;;;;;;;;;4.22;100.00;100638.69;5117512;27;19924;-86
2021/04/03 01:52:34;;;;;;;;;;;;;;;4.24;100.00;100642.72;5068016;28;19923;-86
2021/04/03 01:55:19;;;;;;;;;;;;;;;4.18;100.00;100635.78;5098729;28;20012;-86
2021/04/03 01:57:49;;;;;;;;;;;;;;;4.18;100.00;100655.16;5116923;27;19924;-86
2021/04/03 02:00:24;;;;;;;;;;;;;;;4.10;100.00;100647.78;5077307;28;19930;-86
2021/04/03 02:03:00;;;;;;;;;;;;;;;4.12;100.00;100648.22;5083219;28;19930;-86
2021/04/03 02:05:30;;;;;;;;;;;;;;;4.18;100.00;100644.09;5082996;28;19934;-86
2021/04/03 02:08:13;;;;;;;;;;;;;;;4.12;100.00;100631.63;5081605;28;20069;-86
2021/04/03 02:10:44;;;;;;;;;;;;;;;4.13;100.00;100637.97;5087317;28;19924;-86
2021/04/03 02:13:12;;;;;;;;;;;;;;;4.19;100.00;100642.97;5093871;28;19972;-86
2021/04/03 02:15:47;;;;;;;;;;;;;;;4.17;100.00;100636.94;5068665;28;19923;-86
2021/04/03 02:18:14;;;;;;;;;;;;;;;4.15;100.00;100636.47;5077110;28;19924;-86
2021/04/03 02:20:43;;;;;;;;;;;;;;;4.14;100.00;100642.34;5097877;27;20061;-86
2021/04/03 02:23:11;;;;;;;;;;;;;;;4.15;100.00;100627.38;5097884;28;19938;-85
2021/04/03 02:25:41;;;;;;;;;;;;;;;4.22;100.00;100627.63;5096286;28;19924;-86
2021/04/03 02:28:15;;;;;;;;;;;;;;;4.12;100.00;100622.53;5075162;28;19928;-86
2021/04/03 02:30:49;;;;;;;;;;;;;;;4.16;100.00;100629.81;5113371;27;20023;-86
2021/04/03 02:33:15;;;;;;;;;;;;;;;4.21;100.00;100621.25;5118484;27;19923;-86
2021/04/03 02:35:42;;;;;;;;;;;;;;;4.32;100.00;100616.09;5131684;27;20387;-85
2021/04/03 02:38:11;;;;;;;;;;;;;;;4.23;100.00;100624.50;5112761;28;19928;-86
2021/04/03 02:40:48;;;;;;;;;;;;;;;4.21;100.00;100624.03;5088583;28;19928;-86
2021/04/03 02:43:33;;;;;;;;;;;;;;;4.14;100.00;100636.81;5095232;28;19981;-86
2021/04/03 02:46:19;;;;;;;;;;;;;;;4.11;100.00;100632.78;5099200;27;19923;-86
2021/04/03 02:48:48;;;;;;;;;;;;;;;4.19;100.00;100620.00;5081759;27;19924;-86
2021/04/03 02:51:22;;;;;;;;;;;;;;;4.09;100.00;100618.47;5071057;28;19928;-86
2021/04/03 02:53:50;;;;;;;;;;;;;;;3.89;100.00;100624.91;5097515;28;19971;-86
2021/04/03 02:56:17;;;;;;;;;;;;;;;3.77;100.00;100619.34;5086978;28;20027;-86
2021/04/03 02:58:45;;;;;;;;;;;;;;;3.83;100.00;100622.69;5089317;28;20393;-86
2021/04/03 03:01:16;;;;;;;;;;;;;;;3.72;100.00;100619.56;5106227;28;20035;-86
2021/04/03 03:03:54;;;;;;;;;;;;;;;3.66;100.00;100626.44;5099076;28;19923;-86
2021/04/03 03:06:23;;;;;;;;;;;;;;;3.68;100.00;100629.69;5096984;28;19924;-86
2021/04/03 03:08:52;;;;;;;;;;;;;;;3.82;100.00;100635.72;5080642;28;19955;-85
2021/04/03 03:11:24;;;;;;;;;;;;;;;3.75;100.00;100635.47;5100016;28;20314;-85
2021/04/03 03:13:54;;;;;;;;;;;;;;;3.87;100.00;100641.03;5069056;28;19924;-85
2021/04/03 03:16:24;;;;;;;;;;;;;;;3.90;100.00;100637.59;5079391;28;19931;-86
2021/04/03 03:18:52;;;;;;;;;;;;;;;3.88;100.00;100639.09;5100390;27;20138;-86
2021/04/03 03:21:23;;;;;;;;;;;;;;;3.91;100.00;100643.94;5064003;28;19924;-86
2021/04/03 03:23:50;;;;;;;;;;;;;;;3.90;100.00;100648.66;5099500;27;19931;-86
2021/04/03 03:26:17;;;;;;;;;;;;;;;3.89;100.00;100640.69;5099071;28;19924;-86
2021/04/03 03:28:46;;;;;;;;;;;;;;;4.03;100.00;100636.44;5096124;28;19924;-86
2021/04/03 03:31:14;;;;;;;;;;;;;;;4.05;100.00;100634.16;5089181;28;19961;-86
2021/04/03 03:33:42;;;;;;;;;;;;;;;3.97;100.00;100635.06;5095486;28;19924;-86
2021/04/03 03:36:08;;;;;;;;;;;;;;;3.99;100.00;100630.00;5096940;28;20183;-86
2021/04/03 03:38:40;;;;;;;;;;;;;;;3.99;100.00;100637.47;5080654;28;19928;-86
2021/04/03 03:41:09;;;;;;;;;;;;;;;3.93;100.00;100631.38;5080417;28;19928;-86
2021/04/03 03:43:38;;;;;;;;;;;;;;;3.92;100.00;100635.28;5074131;28;19924;-86
2021/04/03 03:46:07;;;;;;;;;;;;;;;3.99;100.00;100629.19;5105757;27;20392;-86
2021/04/03 03:48:36;;;;;;;;;;;;;;;3.97;100.00;100637.81;5098072;27;20012;-86
2021/04/03 03:51:03;;;;;;;;;;;;;;;3.93;100.00;100647.16;5109138;28;19924;-86
2021/04/03 03:53:38;;;;;;;;;;;;;;;4.03;100.00;100636.44;5096956;28;19928;-86
2021/04/03 03:56:07;;;;;;;;;;;;;;;4.01;100.00;100633.25;5075966;28;20145;-86
2021/04/03 03:58:35;;;;;;;;;;;;;;;4.05;100.00;100628.63;5093860;27;19930;-86
2021/04/03 04:01:03;;;;;;;;;;;;;;;4.17;100.00;100638.91;5096094;28;20464;-86
2021/04/03 04:03:32;;;;;;;;;;;;;;;4.11;100.00;100627.25;5075312;27;20289;-86
2021/04/03 04:06:04;;;;;;;;;;;;;;;4.15;100.00;100635.69;5057412;28;19931;-86
2021/04/03 04:08:32;;;;;;;;;;;;;;;4.26;100.00;100634.88;5093011;28;19924;-86
2021/04/03 04:11:07;;;;;;;;;;;;;;;4.26;100.00;100634.06;5075209;28;20581;-86
2021/04/03 04:13:36;;;;;;;;;;;;;;;4.22;100.00;100639.50;5108026;28;20359;-86
2021/04/03 04:16:04;;;;;;;;;;;;;;;4.23;100.00;100635.56;5059278;28;19950;-86
2021/04/03 04:18:33;;;;;;;;;;;;;;;4.19;100.00;100640.19;5105320;27;20407;-86
2021/04/03 04:21:03;;;;;;;;;;;;;;;4.13;100.00;100647.09;5100555;28;20382;-86
2021/04/03 04:23:33;;;;;;;;;;;;;;;4.17;100.00;100648.03;5104224;28;20381;-86
2021/04/03 04:26:03;;;;;;;;;;;;;;;4.20;100.00;100658.41;5079737;28;19937;-85
2021/04/03 04:28:34;;;;;;;;;;;;;;;4.13;100.00;100649.88;5092482;28;19931;-86
2021/04/03 04:31:04;;;;;;;;;;;;;;;4.19;100.00;100655.97;5110115;28;20309;-86
2021/04/03 04:33:41;;;;;;;;;;;;;;;4.12;100.00;100659.28;5096136;28;19923;-86
2021/04/03 04:36:09;;;;;;;;;;;;;;;4.11;100.00;100660.47;5106506;28;19934;-86
2021/04/03 04:38:36;;;;;;;;;;;;;;;4.05;100.00;100659.06;5110294;28;19923;-86
2021/04/03 04:41:03;;;;;;;;;;;;;;;4.12;100.00;100656.53;5079059;28;19924;-86
2021/04/03 04:43:30;;;;;;;;;;;;;;;4.11;100.00;100659.63;5097782;28;19927;-86
2021/04/03 04:46:01;;;;;;;;;;;;;;;4.15;100.00;100666.91;5104838;28;20551;-86
2021/04/03 04:48:36;;;;;;;;;;;;;;;4.26;100.00;100673.63;5110489;28;20007;-86
2021/04/03 04:51:10;;;;;;;;;;;;;;;4.21;100.00;100682.13;5087227;28;19928;-86
2021/04/03 04:53:38;;;;;;;;;;;;;;;4.18;100.00;100680.06;5112351;28;19924;-86
2021/04/03 04:56:05;;;;;;;;;;;;;;;4.33;100.00;100678.59;5095657;28;19931;-86
2021/04/03 04:58:37;;;;;;;;;;;;;;;4.39;100.00;100672.47;5093670;28;19932;-86
2021/04/03 05:01:04;;;;;;;;;;;;;;;4.24;100.00;100673.16;5082487;28;19931;-86
2021/04/03 05:03:40;;;;;;;;;;;;;;;4.17;100.00;100669.34;5101813;28;19934;-85
2021/04/03 05:06:06;;;;;;;;;;;;;;;4.10;100.00;100672.69;5115979;28;19928;-86
2021/04/03 05:08:33;;;;;;;;;;;;;;;4.15;100.00;100666.91;5134154;28;19973;-86
2021/04/03 05:11:00;;;;;;;;;;;;;;;4.07;100.00;100676.13;5113087;28;19932;-86
2021/04/03 05:13:27;;;;;;;;;;;;;;;4.01;100.00;100666.44;5079078;28;19969;-86
2021/04/03 05:15:56;;;;;;;;;;;;;;;3.94;100.00;100670.91;5097882;28;19989;-86
2021/04/03 05:18:23;;;;;;;;;;;;;;;4.00;100.00;100675.06;5082577;28;19973;-86
2021/04/03 05:20:49;;;;;;;;;;;;;;;3.93;100.00;100674.81;5092562;28;19935;-84
2021/04/03 05:23:20;;;;;;;;;;;;;;;3.92;100.00;100682.31;5068376;27;20367;-86
2021/04/03 05:25:46;;;;;;;;;;;;;;;3.92;100.00;100673.19;5080971;28;20395;-86
2021/04/03 05:28:13;;;;;;;;;;;;;;;4.06;100.00;100680.03;5122341;27;19923;-85
2021/04/03 05:30:41;;;;;;;;;;;;;;;3.96;100.00;100680.47;5105490;27;20293;-85
2021/04/03 05:33:07;;;;;;;;;;;;;;;3.97;100.00;100693.13;5106798;27;19930;-84
2021/04/03 05:35:34;;;;;;;;;;;;;;;4.02;100.00;100694.88;5092768;28;19924;-84
2021/04/03 05:38:01;;;;;;;;;;;;;;;4.04;100.00;100693.41;5098974;28;19931;-85
2021/04/03 05:40:28;;;;;;;;;;;;;;;4.05;100.00;100695.03;5099455;28;19923;-83
2021/04/03 05:42:55;;;;;;;;;;;;;;;4.06;100.00;100702.16;5117375;28;19924;-84
2021/04/03 05:45:23;;;;;;;;;;;;;;;4.12;100.00;100700.78;5126470;27;19923;-84
2021/04/03 05:47:51;;;;;;;;;;;;;;;4.03;100.00;100702.84;5111164;28;19927;-84
2021/04/03 05:50:17;;;;;;;;;;;;;;;4.17;100.00;100708.88;5098664;28;19924;-85
2021/04/03 05:52:44;;;;;;;;;;;;;;;4.27;100.00;100704.88;5105446;27;19923;-85
2021/04/03 05:55:10;;;;;;;;;;;;;;;4.32;100.00;100705.47;5124088;27;20069;-85
2021/04/03 05:57:37;;;;;;;;;;;;;;;4.31;100.00;100698.31;5106447;27;19929;-85
2021/04/03 06:00:05;;;;;;;;;;;;;;;4.29;100.00;100703.38;5120863;27;19924;-85
2021/04/03 06:02:40;;;;;;;;;;;;;;;4.35;100.00;100702.00;5098590;28;19924;-85
2021/04/03 06:05:07;;;;;;;;;;;;;;;4.21;100.00;100704.28;5070790;28;19931;-85
2021/04/03 06:07:34;;;;;;;;;;;;;;;4.10;100.00;100708.66;5080330;28;20302;-85
2021/04/03 06:10:02;;;;;;;;;;;;;;;4.17;100.00;100711.66;5080560;28;19923;-85
2021/04/03 06:12:42;;;;;;;;;;;;;;;4.17;100.00;100703.34;5095424;27;19929;-85
2021/04/03 06:15:27;;;;;;;;;;;;;;;4.10;100.00;100703.13;5097465;28;19923;-85
2021/04/03 06:17:57;;;;;;;;;;;;;;;4.17;100.00;100717.19;5100495;27;19980;-85
2021/04/03 06:20:37;;;;;;;;;;;;;;;4.12;100.00;100719.38;5100681;27;19930;-85
2021/04/03 06:23:05;;;;;;;;;;;;;;;4.13;100.00;100720.97;5082717;28;19931;-85
2021/04/03 06:25:51;;;;;;;;;;;;;;;4.20;100.00;100708.19;5096776;28;19923;-85
2021/04/03 06:28:19;;;;;;;;;;;;;;;4.13;100.00;100713.50;5078368;28;19923;-85
2021/04/03 06:30:46;;;;;;;;;;;;;;;4.09;100.00;100722.81;5126974;27;19930;-85
2021/04/03 06:33:18;;;;;;;;;;;;;;;4.12;100.00;100722.13;5092756;28;20012;-85
2021/04/03 06:35:45;;;;;;;;;;;;;;;4.17;100.00;100719.94;5106439;27;19931;-85
2021/04/03 06:38:22;;;;;;;;;;;;;;;4.21;100.00;100723.66;5083208;28;19931;-85
2021/04/03 06:40:49;;;;;;;;;;;;;;;4.35;100.00;100732.44;5079940;28;19958;-85
2021/04/03 06:43:17;;;;;;;;;;;;;;;4.27;100.00;100724.25;5079869;28;19981;-85
2021/04/03 06:45:44;;;;;;;;;;;;;;;4.22;100.00;100722.50;5105507;27;20481;-85
2021/04/03 06:48:12;;;;;;;;;;;;;;;4.27;100.00;100727.03;5106414;28;20014;-85
2021/04/03 06:50:39;;;;;;;;;;;;;;;4.24;100.00;100725.72;5078905;27;19923;-83
2021/04/03 06:53:08;;;;;;;;;;;;;;;4.27;100.00;100725.03;5116564;27;20681;-84
2021/04/03 06:55:35;;;;;;;;;;;;;;;4.18;100.00;100729.88;5071526;28;19924;-84
2021/04/03 06:58:04;;;;;;;;;;;;;;;4.22;100.00;100718.94;5094482;28;20014;-84
2021/04/03 07:00:31;;;;;;;;;;;;;;;4.22;100.00;100719.75;5088721;28;19990;-84
2021/04/03 07:03:03;;;;;;;;;;;;;;;4.19;100.00;100725.97;5102193;28;20000;-84
2021/04/03 07:05:34;;;;;;;;;;;;;;;4.18;100.00;100729.06;5089445;28;20337;-84
2021/04/03 07:08:02;;;;;;;;;;;;;;;4.33;100.00;100723.66;5114072;28;20080;-84
2021/04/03 07:10:29;;;;;;;;;;;;;;;4.44;100.00;100740.69;5105161;28;20395;-84
2021/04/03 07:12:58;;;;;;;;;;;;;;;4.42;100.00;100740.22;5095967;28;19951;-84
2021/04/03 07:15:25;;;;;;;;;;;;;;;4.33;100.00;100731.19;5107134;27;19945;-84
2021/04/03 07:17:52;;;;;;;;;;;;;;;4.40;100.00;100745.25;5109370;27;19923;-84
2021/04/03 07:20:24;;;;;;;;;;;;;;;4.42;100.00;100732.72;5101737;28;20332;-84
2021/04/03 07:22:53;;;;;;;;;;;;;;;4.44;100.00;100749.78;5116217;27;20041;-84
2021/04/03 07:25:21;;;;;;;;;;;;;;;4.49;100.00;100745.97;5111848;27;19934;-84
2021/04/03 07:27:48;;;;;;;;;;;;;;;4.48;100.00;100736.88;5105197;27;19928;-84
2021/04/03 07:30:35;;;;;;;;;;;;;;;4.55;100.00;100741.84;5088251;28;19924;-83
2021/04/03 07:33:13;;;;;;;;;;;;;;;4.54;100.00;100731.94;5095851;28;20382;-82
2021/04/03 07:35:47;;;;;;;;;;;;;;;4.44;100.00;100741.47;5095533;28;19931;-82
2021/04/03 07:38:15;;;;;;;;;;;;;;;4.37;100.00;100735.69;5098752;27;20298;-82
2021/04/03 07:40:44;;;;;;;;;;;;;;;4.46;100.00;100741.94;5133905;27;20403;-82
2021/04/03 07:43:32;;;;;;;;;;;;;;;4.61;100.00;100741.28;5093012;28;19924;-83
2021/04/03 07:46:00;;;;;;;;;;;;;;;4.67;100.00;100755.69;5091617;28;20397;-80
2021/04/03 07:48:42;;;;;;;;;;;;;;;4.83;100.00;100754.69;5077763;28;20009;-81
2021/04/03 07:51:10;;;;;;;;;;;;;;;4.74;100.00;100748.44;5107213;28;19924;-83
2021/04/03 07:53:39;;;;;;;;;;;;;;;4.76;100.00;100743.38;5078053;28;19923;-83
2021/04/03 07:56:07;;;;;;;;;;;;;;;4.64;100.00;100745.31;5095647;28;19928;-83
2021/04/03 07:58:34;;;;;;;;;;;;;;;4.66;100.00;100743.00;5084771;27;19931;-83
2021/04/03 08:01:13;;;;;;;;;;;;;;;4.93;100.00;100736.81;5121415;27;19930;-83
2021/04/03 08:03:40;;;;;;;;;;;;;;;4.85;100.00;100743.25;5104804;28;19927;-83
2021/04/03 08:06:09;;;;;;;;;;;;;;;4.91;100.00;100751.00;5125881;27;19923;-83
2021/04/03 08:08:40;;;;;;;;;;;;;;;4.91;100.00;100745.47;5098902;28;20410;-83
2021/04/03 08:11:14;;;;;;;;;;;;;;;5.00;100.00;100735.06;5119482;28;20283;-82
2021/04/03 08:13:51;;;;;;;;;;;;;;;5.28;100.00;100743.50;5122728;27;20286;-83
2021/04/03 08:16:19;;;;;;;;;;;;;;;5.47;100.00;100747.28;5096344;28;19927;-83
2021/04/03 08:18:46;;;;;;;;;;;;;;;5.58;100.00;100747.59;5119384;27;19928;-82
2021/04/03 08:21:13;;;;;;;;;;;;;;;5.77;100.00;100744.22;5098604;28;19931;-83
2021/04/03 08:23:41;;;;;;;;;;;;;;;5.98;100.00;100745.69;5095406;28;19927;-83
2021/04/03 08:26:08;;;;;;;;;;;;;;;5.82;100.00;100752.28;5104980;28;19927;-83
2021/04/03 08:28:35;;;;;;;;;;;;;;;5.74;100.00;100758.78;5122140;28;19923;-82
2021/04/03 08:31:16;;;;;;;;;;;;;;;5.51;100.00;100758.47;5114961;28;19977;-83
2021/04/03 08:33:46;;;;;;;;;;;;;;;5.85;100.00;100757.13;5094916;28;19924;-83
2021/04/03 08:36:18;;;;;;;;;;;;;;;5.63;100.00;100760.41;5114748;28;19959;-82
2021/04/03 08:38:45;;;;;;;;;;;;;;;5.49;100.00;100767.16;5097784;28;19923;-79
2021/04/03 08:41:16;;;;;;;;;;;;;;;5.39;100.00;100761.28;5098444;28;20423;-79
2021/04/03 08:43:43;;;;;;;;;;;;;;;5.76;100.00;100771.13;5105683;28;19931;-79
2021/04/03 08:46:13;;;;;;;;;;;;;;;5.60;100.00;100768.25;5095511;28;20014;-83
2021/04/03 08:48:41;;;;;;;;;;;;;;;5.34;100.00;100770.63;5105102;28;20386;-82
2021/04/03 08:51:09;;;;;;;;;;;;;;;5.33;100.00;100769.00;5105986;28;19974;-81
2021/04/03 08:53:55;;;;;;;;;;;;;;;5.32;100.00;100772.13;5107010;28;20340;-81
2021/04/03 08:56:26;;;;;;;;;;;;;;;5.24;100.00;100776.63;5125191;27;19981;-81
2021/04/03 08:58:54;;;;;;;;;;;;;;;5.31;100.00;100785.19;5086340;28;19934;-82
2021/04/03 09:01:24;;;;;;;;;;;;;;;5.37;100.00;100774.66;5117931;27;19923;-81
2021/04/03 09:03:56;;;;;;;;;;;;;;;5.46;100.00;100772.56;5103186;28;19971;-81
2021/04/03 09:06:42;;;;;;;;;;;;;;;5.29;100.00;100770.03;5117583;28;20018;-81
2021/04/03 09:09:10;;;;;;;;;;;;;;;5.40;100.00;100780.34;5121873;27;20417;-78
2021/04/03 09:11:38;;;;;;;;;;;;;;;5.43;100.00;100779.63;5119728;27;19958;-81
2021/04/03 09:14:04;;;;;;;;;;;;;;;5.42;100.00;100772.47;5132992;27;19931;-81
2021/04/03 09:16:35;;;;;;;;;;;;;;;5.42;100.00;100778.00;5121602;27;20561;-81
2021/04/03 09:19:02;;;;;;;;;;;;;;;5.49;100.00;100777.44;5121217;27;19923;-81
2021/04/03 09:21:29;;;;;;;;;;;;;;;5.63;100.00;100782.59;5119966;27;20411;-80
2021/04/03 09:23:55;;;;;;;;;;;;;;;5.57;100.00;100788.38;5082042;28;19924;-81
2021/04/03 09:26:33;;;;;;;;;;;;;;;5.69;100.00;100792.28;5087242;28;19923;-81
2021/04/03 09:29:09;;;;;;;;;;;;;;;5.57;100.00;100780.06;5117437;28;19924;-81
2021/04/03 09:31:37;;;;;;;;;;;;;;;5.84;100.00;100778.53;5122122;27;19924;-80
2021/04/03 09:34:29;;;;;;;;;;;;;;;6.13;100.00;100782.97;5136132;27;19923;-79
2021/04/03 09:36:56;;;;;;;;;;;;;;;5.85;100.00;100780.16;5101638;28;19992;-81
2021/04/03 09:39:23;;;;;;;;;;;;;;;5.74;100.00;100778.19;5117191;28;19924;-83
2021/04/03 09:41:51;;;;;;;;;;;;;;;5.90;100.00;100779.91;5081829;28;19946;-79
2021/04/03 09:44:18;;;;;;;;;;;;;;;5.86;100.00;100780.97;5107135;27;19931;-80
2021/04/03 09:46:45;;;;;;;;;;;;;;;5.96;100.00;100764.63;5122425;27;19931;-80
2021/04/03 09:49:12;;;;;;;;;;;;;;;6.24;100.00;100764.66;5118974;27;20020;-80
2021/04/03 09:51:39;;;;;;;;;;;;;;;6.14;100.00;100773.47;5100719;28;19967;-80
2021/04/03 09:54:06;;;;;;;;;;;;;;;6.31;100.00;100762.88;5124279;27;19924;-81
2021/04/03 09:56:32;;;;;;;;;;;;;;;6.43;100.00;100767.53;5098143;28;19927;-81
2021/04/03 09:58:59;;;;;;;;;;;;;;;6.26;100.00;100753.97;5122782;27;19960;-81
2021/04/03 10:01:26;;;;;;;;;;;;;;;6.12;100.00;100759.16;5118584;27;19923;-81
2021/04/03 10:03:54;;;;;;;;;;;;;;;6.28;100.00;100757.22;5118481;27;20271;-81
2021/04/03 10:06:22;;;;;;;;;;;;;;;6.62;100.00;100760.13;5137021;27;19923;-81
2021/04/03 10:08:49;;;;;;;;;;;;;;;6.66;100.00;100760.25;5123992;27;19934;-81
2021/04/03 10:11:15;;;;;;;;;;;;;;;6.52;100.00;100766.22;5114089;28;19924;-81
2021/04/03 10:13:44;;;;;;;;;;;;;;;6.40;100.00;100768.25;5117764;27;20027;-81
2021/04/03 10:16:11;;;;;;;;;;;;;;;6.39;100.00;100761.88;5119048;27;19970;-81
2021/04/03 10:18:37;;;;;;;;;;;;;;;6.78;100.00;100765.72;5136961;27;19923;-81
2021/04/03 10:21:04;;;;;;;;;;;;;;;6.89;100.00;100755.69;5118693;27;20645;-83
2021/04/03 10:23:30;;;;;;;;;;;;;;;6.90;100.00;100746.19;5107833;27;20266;-82
2021/04/03 10:25:57;;;;;;;;;;;;;;;7.03;100.00;100753.25;5136949;27;19923;-81
2021/04/03 10:28:24;;;;;;;;;;;;;;;6.77;100.00;100753.00;5101544;27;19931;-81
2021/04/03 10:30:51;;;;;;;;;;;;;;;6.69;100.00;100754.78;5106191;28;19935;-81
2021/04/03 10:33:17;;;;;;;;;;;;;;;6.70;100.00;100755.56;5130709;27;19924;-81
2021/04/03 10:35:44;;;;;;;;;;;;;;;6.83;100.00;100748.78;5090569;28;19928;-81
2021/04/03 10:38:11;;;;;;;;;;;;;;;7.25;100.00;100741.50;5122575;27;19923;-81
2021/04/03 10:40:37;;;;;;;;;;;;;;;7.47;100.00;100738.03;5116002;28;19934;-80
2021/04/03 10:43:04;;;;;;;;;;;;;;;7.25;100.00;100738.72;5100092;27;19923;-80
2021/04/03 10:45:31;;;;;;;;;;;;;;;7.30;100.00;100735.63;5125381;27;20004;-81
2021/04/03 10:47:57;;;;;;;;;;;;;;;7.34;100.00;100734.59;5116051;27;19995;-80
2021/04/03 10:50:24;;;;;;;;;;;;;;;7.59;100.00;100742.69;5102412;28;20363;-80
2021/04/03 10:52:51;;;;;;;;;;;;;;;7.53;100.00;100744.91;5100622;28;20295;-80
2021/04/03 10:55:19;;;;;;;;;;;;;;;7.61;100.00;100745.88;5099432;28;20391;-80
2021/04/03 10:57:45;;;;;;;;;;;;;;;7.80;100.00;100746.72;5095295;28;19969;-80
2021/04/03 11:00:13;;;;;;;;;;;;;;;7.75;100.00;100752.59;5102658;28;20419;-81
2021/04/03 11:02:40;;;;;;;;;;;;;;;7.54;100.00;100745.75;5096854;28;19928;-80
2021/04/03 11:05:07;;;;;;;;;;;;;;;7.44;100.00;100746.31;5082620;28;20005;-81
2021/04/03 11:07:34;;;;;;;;;;;;;;;7.31;100.00;100731.72;5056467;28;20279;-80
2021/04/03 11:10:00;;;;;;;;;;;;;;;7.37;100.00;100735.81;5076801;28;19951;-80
2021/04/03 11:12:27;;;;;;;;;;;;;;;7.73;100.00;100748.53;5094427;28;19924;-80
2021/04/03 11:14:53;;;;;;;;;;;;;;;7.95;100.00;100743.06;5094930;28;19924;-81
2021/04/03 11:17:20;;;;;;;;;;;;;;;7.95;100.00;100745.84;5076676;28;20020;-80
2021/04/03 11:19:46;;;;;;;;;;;;;;;8.02;100.00;100734.88;5076304;28;20493;-80
2021/04/03 11:22:13;;;;;;;;;;;;;;;8.11;100.00;100738.25;5076388;28;20010;-81
2021/04/03 11:24:40;;;;;;;;;;;;;;;7.97;100.00;100735.16;5076667;28;19974;-80
2021/04/03 11:27:07;;;;;;;;;;;;;;;8.03;100.00;100732.88;5060864;28;19947;-81
2021/04/03 11:29:43;;;;;;;;;;;;;;;8.26;100.00;100729.03;5084530;28;19939;-81
2021/04/03 11:32:10;;;;;;;;;;;;;;;8.05;100.00;100734.16;5065579;28;19996;-81
2021/04/03 11:34:37;;;;;;;;;;;;;;;7.60;100.00;100711.72;5073683;28;19947;-80
2021/04/03 11:37:03;;;;;;;;;;;;;;;7.51;100.00;100719.47;5109514;28;20003;-80
2021/04/03 11:39:30;;;;;;;;;;;;;;;7.79;100.00;100719.25;5100752;28;20010;-81
2021/04/03 11:41:56;;;;;;;;;;;;;;;7.76;100.00;100723.59;5094247;28;19924;-81
2021/04/03 11:44:24;;;;;;;;;;;;;;;7.85;100.00;100712.22;5106500;28;19927;-80
2021/04/03 11:46:51;;;;;;;;;;;;;;;8.15;100.00;100705.69;5106427;27;20016;-80
2021/04/03 11:49:19;;;;;;;;;;;;;;;8.29;100.00;100706.00;5131120;27;19946;-80
2021/04/03 11:51:46;;;;;;;;;;;;;;;8.36;100.00;100706.13;5116686;27;19930;-80
2021/04/03 11:54:14;;;;;;;;;;;;;;;8.10;100.00;100711.59;5101887;28;19924;-80
2021/04/03 11:56:41;;;;;;;;;;;;;;;7.93;100.00;100714.00;5122800;27;20478;-83
2021/04/03 11:59:08;;;;;;;;;;;;;;;8.06;100.00;100718.22;5121497;27;20033;-83
2021/04/03 12:01:34;;;;;;;;;;;;;;;8.33;100.00;100711.66;5116216;27;19923;-83
2021/04/03 12:04:01;;;;;;;;;;;;;;;8.27;100.00;100713.91;5116123;27;19924;-83
2021/04/03 12:06:27;;;;;;;;;;;;;;;7.96;100.00;100719.63;5116851;27;20064;-83
2021/04/03 12:08:54;;;;;;;;;;;;;;;7.80;100.00;100710.53;5132246;27;19998;-83
2021/04/03 12:11:20;;;;;;;;;;;;;;;8.15;100.00;100708.47;5114723;27;20251;-81
2021/04/03 12:13:47;;;;;;;;;;;;;;;8.38;100.00;100719.69;5106444;28;19969;-81
2021/04/03 12:16:14;;;;;;;;;;;;;;;8.25;100.00;100715.47;5098226;28;19970;-81
2021/04/03 12:18:40;;;;;;;;;;;;;;;8.35;100.00;100720.44;5096137;28;19932;-81
2021/04/03 12:21:07;;;;;;;;;;;;;;;8.49;100.00;100710.38;5098182;27;19985;-80
2021/04/03 12:23:34;;;;;;;;;;;;;;;8.78;100.00;100709.69;5107735;28;19931;-81
2021/04/03 12:26:01;;;;;;;;;;;;;;;8.71;100.00;100711.53;5127761;28;20026;-80
2021/04/03 12:28:30;;;;;;;;;;;;;;;8.35;100.00;100721.25;5095727;28;19938;-80
2021/04/03 12:30:57;;;;;;;;;;;;;;;8.43;100.00;100711.03;5088806;28;20362;-81
2021/04/03 12:33:30;;;;;;;;;;;;;;;8.54;100.00;100728.75;5114762;28;19927;-81
2021/04/03 12:35:57;;;;;;;;;;;;;;;8.79;100.00;100724.44;5096860;28;20380;-80
2021/04/03 12:38:23;;;;;;;;;;;;;;;8.82;100.00;100727.28;5117892;28;20397;-81
2021/04/03 12:40:50;;;;;;;;;;;;;;;8.77;100.00;100705.28;5114151;28;20011;-81
2021/04/03 12:43:17;;;;;;;;;;;;;;;8.83;100.00;100698.22;5103764;28;20381;-80
2021/04/03 12:45:44;;;;;;;;;;;;;;;8.63;100.00;100707.81;5123525;28;20391;-80